Weather History for Monroe, MI

Change the Weather History Date:

Tuesday, February 19, 2013

  Actual Average Record
Temperature  
Mean Temperature 32 °F -  
Max Temperature 46 °F 37 °F 60 °F (1976)
Min Temperature 19 °F 23 °F -5 °F (1936)
Degree Days  
Heating Degree Days 32    
Moisture  
Dew Point 25 °F    
Average Humidity 79    
Maximum Humidity 93    
Minimum Humidity 59    
Precipitation  
Precipitation 0.00 in - - ()
Sea Level Pressure  
Sea Level Pressure 29.67 in    
Wind  
Wind Speed 19 mph (SW)    
Max Wind Speed 32 mph    
Max Gust Speed 39 mph    
Visibility 8 miles    
Events Rain , Snow    
Averages and records for this station are not official NWS values.
T = Trace of Precipitation, MM = Missing Value Source: NWS Daily Summary

Daily Weather History Graph

Daily Weather History Graph

Search for Another Location

Airport:

Trip Planner

Search our weather history database for the weather conditions in past years. The results will help you decide how hot, cold, wet, or windy it might be!

Date:

Astronomy

Feb. 19, 2013 Rise Set
Actual Time 7:23 AM EST 6:12 PM EST
Civil Twilight 6:55 AM EST 6:40 PM EST
Nautical Twilight 6:22 AM EST 7:13 PM EST
Astronomical Twilight 5:50 AM EST 7:45 PM EST
Moon 12:39 PM EST (2/19) 2:57 AM EST (2/19)
Length of Visible Light 11h 45m
Length of Day
10h 48m
Waxing Gibbous, 67% of the Moon is Illuminated
Feb 19
Waxing Gibbous
Feb 25
Full
Mar 4
Last Quarter
Mar 11
New
Mar 19
First Quarter

Hourly Weather History & Observations

Time (EST) Temp. Windchill Dew Point Humidity Pressure Visibility Wind Dir Wind Speed Gust Speed Precip Events Conditions
12:11 AM 46.4 °F 40.7 °F 35.6 °F 66% 29.60 in 10.0 mi South 12.7 mph 19.6 mph N/A   Overcast
12:31 AM 46.4 °F 40.4 °F 35.6 °F 66% 29.60 in 10.0 mi South 13.8 mph 18.4 mph N/A   Drizzle
1:31 AM 44.6 °F 37.4 °F 39.2 °F 81% 29.55 in 10.0 mi South 16.1 mph 19.6 mph N/A Rain Light Rain
1:51 AM 42.8 °F 36.2 °F 39.2 °F 87% 29.54 in 10.0 mi South 12.7 mph 20.7 mph N/A Rain Light Rain
2:11 AM 42.8 °F 35.8 °F 39.2 °F 87% 29.52 in 10.0 mi South 13.8 mph 20.7 mph N/A Rain Rain
2:31 AM 44.6 °F 37.2 °F 39.2 °F 81% 29.51 in 10.0 mi South 17.3 mph 23.0 mph N/A Rain Light Rain
2:52 AM 42.8 °F 35.4 °F 41.0 °F 93% 29.50 in 7.0 mi South 15.0 mph 24.2 mph N/A Rain Light Rain
3:12 AM 42.8 °F 34.8 °F 41.0 °F 93% 29.48 in 10.0 mi South 17.3 mph 25.3 mph N/A Rain Light Rain
3:32 AM 42.8 °F 34.3 °F 41.0 °F 93% 29.47 in 10.0 mi South 19.6 mph 25.3 mph N/A Rain Rain
3:52 AM 42.8 °F 34.8 °F 41.0 °F 93% 29.45 in 7.0 mi South 17.3 mph 26.5 mph N/A   Light Drizzle
4:12 AM 42.8 °F 34.3 °F 41.0 °F 93% 29.45 in 7.0 mi South 19.6 mph 25.3 mph N/A Rain Rain
4:32 AM 44.6 °F 36.6 °F 42.8 °F 93% 29.44 in 5.0 mi SSW 19.6 mph 29.9 mph N/A   Light Drizzle
4:52 AM 44.6 °F 37.2 °F 42.8 °F 93% 29.45 in 5.0 mi SSW 17.3 mph 28.8 mph N/A Rain Light Rain
5:12 AM 42.8 °F 31.9 °F 39.2 °F 87% 29.47 in 7.0 mi WSW 32.2 mph 38.0 mph N/A Rain Light Rain
5:32 AM 41.0 °F 31.4 °F 37.4 °F 87% 29.49 in 10.0 mi West 21.9 mph 28.8 mph N/A   Overcast
5:53 AM 37.4 °F 26.9 °F 35.6 °F 93% 29.51 in 10.0 mi WSW 20.7 mph 28.8 mph N/A   Overcast
6:13 AM 37.4 °F 26.9 °F 35.6 °F 93% 29.53 in 10.0 mi WSW 20.7 mph 25.3 mph N/A   Overcast
6:33 AM 37.4 °F 27.8 °F 33.8 °F 87% 29.54 in 7.0 mi WSW 17.3 mph 31.1 mph N/A   Overcast
6:53 AM 35.6 °F 24.2 °F 33.8 °F 93% 29.54 in 5.0 mi WSW 21.9 mph 26.5 mph N/A   Overcast
7:13 AM 35.6 °F 24.8 °F 33.8 °F 93% 29.55 in 4.0 mi WSW 19.6 mph 26.5 mph N/A   Overcast
7:53 AM 33.8 °F 20.5 °F 30.2 °F 87% 29.58 in 10.0 mi WSW 27.6 mph 38.0 mph N/A   Overcast
8:13 AM 33.8 °F 22.2 °F 30.2 °F 87% 29.59 in 10.0 mi WSW 20.7 mph 33.4 mph N/A   Overcast
8:34 AM 32.0 °F 20.1 °F 28.4 °F 87% 29.61 in 10.0 mi WSW 19.6 mph 33.4 mph N/A   Overcast
8:54 AM 30.2 °F 16.5 °F 26.6 °F 86% 29.62 in 10.0 mi WSW 24.2 mph 39.1 mph N/A   Overcast
9:14 AM 30.2 °F 15.9 °F 26.6 °F 86% 29.63 in 10.0 mi WSW 26.5 mph 29.9 mph N/A   Overcast
9:34 AM 28.4 °F 14.1 °F 24.8 °F 86% 29.64 in 10.0 mi WSW 24.2 mph 34.5 mph N/A   Overcast
9:54 AM 28.4 °F 15.1 °F 24.8 °F 86% 29.65 in 5.0 mi West 20.7 mph 29.9 mph N/A Snow Light Snow
10:14 AM 28.4 °F 15.8 °F 23.0 °F 80% 29.65 in 10.0 mi WSW 18.4 mph 31.1 mph N/A Snow Light Snow
10:34 AM 28.4 °F 14.1 °F 23.0 °F 80% 29.65 in 7.0 mi WSW 24.2 mph 29.9 mph N/A Snow Light Snow
10:54 AM 28.4 °F 15.8 °F 24.8 °F 86% 29.66 in 0.8 mi SW 18.4 mph 31.1 mph N/A Snow Light Snow
11:35 AM 26.6 °F 12.7 °F 21.2 °F 80% 29.68 in 2.5 mi WSW 20.7 mph 32.2 mph N/A Snow Light Snow
11:55 AM 26.6 °F 11.1 °F 21.2 °F 80% 29.68 in 2.0 mi WSW 26.5 mph 33.4 mph N/A Snow Light Snow
12:15 PM 26.6 °F 11.4 °F 21.2 °F 80% 29.68 in 0.8 mi WSW 25.3 mph 33.4 mph N/A Snow Light Snow
12:35 PM 26.6 °F 11.1 °F 21.2 °F 80% 29.69 in 7.0 mi WSW 26.5 mph 34.5 mph N/A Snow Light Snow
12:55 PM 26.6 °F 12.0 °F 19.4 °F 74% 29.69 in 10.0 mi WSW 23.0 mph 28.8 mph N/A   Overcast
1:15 PM 26.6 °F 11.4 °F 17.6 °F 69% 29.70 in 10.0 mi WSW 25.3 mph 33.4 mph N/A Snow Light Snow
1:35 PM 26.6 °F 11.4 °F 17.6 °F 69% 29.70 in 10.0 mi WSW 25.3 mph 32.2 mph N/A   Overcast
1:55 PM 24.8 °F 9.3 °F 15.8 °F 69% 29.71 in 10.0 mi West 24.2 mph 32.2 mph N/A Snow Light Snow
2:16 PM 24.8 °F 9.3 °F 15.8 °F 69% 29.71 in 10.0 mi WSW 24.2 mph 35.7 mph N/A   Overcast
2:31 PM 24.8 °F 9.6 °F 15.8 °F 69% 29.72 in 10.0 mi West 23.0 mph 29.9 mph N/A   Overcast
2:51 PM 24.8 °F 10.7 °F 15.8 °F 69% 29.73 in 10.0 mi West 19.6 mph 28.8 mph N/A   Overcast
3:11 PM 24.8 °F 9.6 °F 15.8 °F 69% 29.74 in 10.0 mi West 23.0 mph 28.8 mph N/A   Overcast
3:31 PM 24.8 °F 8.7 °F 12.2 °F 59% 29.75 in 10.0 mi WSW 26.5 mph 38.0 mph N/A   Overcast
4:11 PM 24.8 °F 9.3 °F 14.0 °F 64% 29.77 in 10.0 mi West 24.2 mph 34.5 mph N/A   Overcast
4:51 PM 24.8 °F 9.3 °F 12.2 °F 59% 29.80 in 10.0 mi West 24.2 mph 35.7 mph N/A   Overcast
5:32 PM 23.0 °F 7.6 °F 12.2 °F 63% 29.82 in 10.0 mi WSW 21.9 mph 29.9 mph N/A   Overcast
5:52 PM 23.0 °F 8.7 °F 14.0 °F 68% 29.84 in 10.0 mi West 18.4 mph 31.1 mph N/A   Overcast
6:12 PM 21.2 °F 4.9 °F 14.0 °F 74% 29.85 in 4.0 mi West 23.0 mph 33.4 mph N/A Snow Light Snow
8:12 PM 21.2 °F 4.9 °F 12.2 °F 68% 29.91 in 10.0 mi WSW 23.0 mph 29.9 mph N/A   Overcast
8:33 PM 21.2 °F 5.2 °F 12.2 °F 68% 29.91 in 10.0 mi WSW 21.9 mph 28.8 mph N/A   Overcast
8:53 PM 21.2 °F 5.6 °F 12.2 °F 68% 29.91 in 10.0 mi West 20.7 mph 29.9 mph N/A   Overcast
9:13 PM 21.2 °F 6.0 °F 12.2 °F 68% 29.92 in 10.0 mi West 19.6 mph 28.8 mph N/A   Overcast
9:53 PM 21.2 °F 5.2 °F 12.2 °F 68% 29.93 in 10.0 mi WSW 21.9 mph 27.6 mph N/A   Overcast
10:13 PM 21.2 °F 7.3 °F 14.0 °F 74% 29.93 in 10.0 mi WSW 16.1 mph - N/A   Overcast
10:33 PM 19.4 °F 4.5 °F 14.0 °F 80% 29.94 in 10.0 mi WSW 17.3 mph 27.6 mph N/A Snow Light Snow
10:53 PM 19.4 °F 3.6 °F 14.0 °F 80% 29.94 in 10.0 mi WSW 19.6 mph - N/A Snow Light Snow
11:13 PM 21.2 °F 6.8 °F 14.0 °F 74% 29.94 in 10.0 mi WSW 17.3 mph 24.2 mph N/A Snow Light Snow
11:34 PM 19.4 °F 4.5 °F 15.8 °F 86% 29.94 in 10.0 mi WSW 17.3 mph 23.0 mph N/A   Overcast